createdAt,value
2018-04-22T00:01:53.462Z,55.48
2018-04-22T00:04:22.478Z,55.37
2018-04-22T00:06:50.753Z,55.71
2018-04-22T00:09:18.990Z,55.56
2018-04-22T00:11:48.002Z,56.03
2018-04-22T00:14:16.243Z,56.18
2018-04-22T00:16:44.486Z,56.17
2018-04-22T00:19:12.738Z,56.26
2018-04-22T00:21:40.978Z,56.33
2018-04-22T00:24:10.064Z,56.62
2018-04-22T00:26:38.293Z,56.66
2018-04-22T00:29:06.544Z,56.73
2018-04-22T00:31:34.793Z,56.75
2018-04-22T00:34:03.031Z,57.13
2018-04-22T00:36:31.465Z,57.21
2018-04-22T00:39:00.469Z,57.07
2018-04-22T00:41:28.735Z,55.82
2018-04-22T00:43:56.978Z,56.82
2018-04-22T00:46:25.222Z,56.85
2018-04-22T00:48:53.467Z,57.30
2018-04-22T00:51:22.487Z,57.21
2018-04-22T00:54:08.522Z,57.39
2018-04-22T00:56:36.766Z,57.30
2018-04-22T00:59:05.002Z,57.59
2018-04-22T01:01:34.023Z,57.69
2018-04-22T01:04:02.279Z,57.53
2018-04-22T01:06:30.524Z,57.51
2018-04-22T01:08:58.822Z,57.52
2018-04-22T01:11:27.840Z,56.64
2018-04-22T01:13:56.082Z,56.85
2018-04-22T01:16:25.116Z,56.87
2018-04-22T01:18:53.354Z,57.69
2018-04-22T01:21:22.407Z,57.94
2018-04-22T01:23:50.657Z,57.76
2018-04-22T01:26:18.908Z,57.60
2018-04-22T01:28:47.931Z,58.28
2018-04-22T01:31:16.165Z,57.98
2018-04-22T01:33:45.203Z,57.66
2018-04-22T01:36:13.438Z,57.47
2018-04-22T01:38:42.466Z,58.00
2018-04-22T01:41:10.710Z,58.02
2018-04-22T01:43:39.734Z,56.89
2018-04-22T01:46:07.992Z,57.70
2018-04-22T01:48:37.050Z,56.57
2018-04-22T01:51:05.286Z,55.97
2018-04-22T01:53:33.537Z,56.33
2018-04-22T01:56:01.782Z,55.56
2018-04-22T01:58:30.025Z,55.59
2018-04-22T02:00:58.271Z,55.86
2018-04-22T02:03:26.517Z,55.48
2018-04-22T02:05:55.521Z,55.13
2018-04-22T02:08:24.522Z,55.12
2018-04-22T02:10:53.797Z,55.50
2018-04-22T02:13:22.038Z,55.27
2018-04-22T02:15:50.274Z,55.56
2018-04-22T02:18:19.309Z,56.50
2018-04-22T02:20:47.638Z,56.72
2018-04-22T02:23:16.650Z,56.52
2018-04-22T02:25:44.895Z,55.77
2018-04-22T02:28:13.902Z,56.50
2018-04-22T02:30:42.908Z,57.39
2018-04-22T02:33:11.165Z,57.78
2018-04-22T02:35:40.173Z,58.21
2018-04-22T02:38:08.421Z,58.08
2018-04-22T02:40:37.425Z,58.83
2018-04-22T02:43:06.444Z,58.79
2018-04-22T02:45:34.682Z,59.06
2018-04-22T02:48:02.938Z,58.88
2018-04-22T02:50:31.189Z,58.61
2018-04-22T02:52:59.427Z,58.86
2018-04-22T02:55:28.446Z,58.89
2018-04-22T02:57:56.694Z,59.32
2018-04-22T03:00:25.703Z,59.09
2018-04-22T03:02:54.071Z,59.38
2018-04-22T03:05:22.309Z,59.15
2018-04-22T03:07:50.550Z,59.92
2018-04-22T03:10:18.802Z,60.06
2018-04-22T03:12:47.105Z,60.00
2018-04-22T03:15:15.442Z,59.57
2018-04-22T03:17:43.957Z,59.55
2018-04-22T03:20:12.210Z,59.59
2018-04-22T03:22:40.449Z,59.66
2018-04-22T03:25:08.962Z,60.02
2018-04-22T03:27:37.205Z,59.99
2018-04-22T03:30:05.442Z,59.24
2018-04-22T03:32:33.695Z,59.61
2018-04-22T03:35:01.935Z,59.84
2018-04-22T03:37:30.171Z,58.87
2018-04-22T03:39:58.427Z,59.84
2018-04-22T03:42:26.714Z,59.72
2018-04-22T03:44:54.966Z,60.32
2018-04-22T03:47:23.995Z,60.75
2018-04-22T03:49:52.361Z,60.95
2018-04-22T03:52:20.589Z,61.01
2018-04-22T03:54:48.822Z,61.24
2018-04-22T03:57:17.079Z,60.40
2018-04-22T03:59:45.326Z,58.63
2018-04-22T04:02:14.337Z,58.33
2018-04-22T04:04:42.577Z,57.79
2018-04-22T04:07:10.818Z,57.65
2018-04-22T04:09:39.070Z,57.29
2018-04-22T04:12:07.313Z,57.28
2018-04-22T04:14:36.366Z,57.19
2018-04-22T04:17:04.602Z,56.90
2018-04-22T04:19:50.719Z,56.78
2018-04-22T04:22:36.602Z,56.87
2018-04-22T04:25:44.178Z,56.76
2018-04-22T04:28:12.423Z,56.62
2018-04-22T04:30:40.683Z,56.90
2018-04-22T04:33:08.906Z,56.95
2018-04-22T04:35:37.915Z,57.02
2018-04-22T04:38:06.146Z,57.07
2018-04-22T04:40:34.391Z,56.80
2018-04-22T04:43:02.625Z,57.05
2018-04-22T04:45:30.877Z,56.89
2018-04-22T04:47:59.110Z,56.55
2018-04-22T04:50:27.362Z,56.64
2018-04-22T04:52:55.606Z,56.83
2018-04-22T04:55:24.613Z,56.65
2018-04-22T04:57:53.622Z,56.80
2018-04-22T05:00:21.869Z,56.81
2018-04-22T05:02:50.106Z,56.95
2018-04-22T05:05:18.333Z,56.97
2018-04-22T05:07:47.349Z,56.85
2018-04-22T05:10:15.831Z,56.59
2018-04-22T05:12:44.085Z,56.95
2018-04-22T05:15:12.342Z,56.68
2018-04-22T05:17:40.590Z,56.72
2018-04-22T05:20:08.833Z,57.66
2018-04-22T05:22:37.098Z,56.57
2018-04-22T05:25:05.354Z,56.83
2018-04-22T05:27:34.368Z,56.37
2018-04-22T05:30:02.619Z,56.70
2018-04-22T05:32:31.634Z,56.57
2018-04-22T05:34:59.874Z,56.04
2018-04-22T05:37:28.122Z,55.21
2018-04-22T05:39:56.354Z,55.52
2018-04-22T05:42:25.372Z,55.51
2018-04-22T05:44:53.601Z,55.32
2018-04-22T05:47:22.618Z,54.95
2018-04-22T05:49:50.862Z,54.63
2018-04-22T05:52:19.098Z,54.87
2018-04-22T05:54:47.341Z,54.42
2018-04-22T05:57:15.590Z,54.14
2018-04-22T05:59:43.834Z,54.11
2018-04-22T06:02:12.115Z,54.31
2018-04-22T06:04:40.313Z,54.86
2018-04-22T06:07:08.559Z,54.49
2018-04-22T06:09:36.811Z,54.38
2018-04-22T06:12:05.037Z,54.46
2018-04-22T06:14:33.343Z,54.24
2018-04-22T06:17:02.653Z,54.39
2018-04-22T06:19:30.888Z,54.58
2018-04-22T06:21:59.122Z,54.49
2018-04-22T06:24:27.370Z,54.03
2018-04-22T06:26:56.398Z,53.81
2018-04-22T06:29:24.631Z,53.37
2018-04-22T06:31:53.645Z,53.04
2018-04-22T06:34:21.901Z,52.87
2018-04-22T06:36:51.003Z,52.93
2018-04-22T06:39:20.010Z,53.13
2018-04-22T06:41:48.258Z,52.13
2018-04-22T06:44:17.278Z,52.19
2018-04-22T06:46:45.553Z,51.58
2018-04-22T06:49:14.718Z,51.62
2018-04-22T06:51:43.726Z,51.46
2018-04-22T06:54:12.744Z,51.21
2018-04-22T06:56:40.994Z,50.27
2018-04-22T06:59:09.995Z,50.18
2018-04-22T07:01:38.226Z,50.19
2018-04-22T07:04:06.482Z,50.19
2018-04-22T07:06:34.717Z,49.93
2018-04-22T07:09:03.713Z,49.95
2018-04-22T07:11:32.308Z,49.70
2018-04-22T07:14:00.533Z,48.60
2018-04-22T07:16:28.768Z,48.47
2018-04-22T07:18:57.014Z,47.92
2018-04-22T07:21:26.014Z,48.11
2018-04-22T07:23:55.033Z,47.03
2018-04-22T07:26:23.264Z,46.22
2018-04-22T07:28:51.777Z,46.30
2018-04-22T07:31:20.014Z,46.45
2018-04-22T07:33:48.245Z,44.65
2018-04-22T07:36:16.488Z,45.32
2018-04-22T07:38:45.504Z,45.19
2018-04-22T07:41:13.738Z,44.99
2018-04-22T07:43:42.750Z,44.99
2018-04-22T07:46:11.758Z,45.79
2018-04-22T07:48:39.993Z,45.24
2018-04-22T07:51:08.229Z,45.23
2018-04-22T07:57:01.101Z,44.21
2018-04-22T07:59:30.200Z,45.71
2018-04-22T08:01:59.206Z,44.04
2018-04-22T08:04:27.456Z,43.11
2018-04-22T08:06:55.695Z,43.25
2018-04-22T08:09:23.939Z,44.70
2018-04-22T08:11:52.165Z,42.12
2018-04-22T08:14:20.890Z,41.38
2018-04-22T08:16:49.138Z,42.16
2018-04-22T08:19:17.383Z,41.31
2018-04-22T08:21:46.494Z,41.36
2018-04-22T08:24:14.818Z,39.96
2018-04-22T08:26:43.074Z,40.86
2018-04-22T08:29:12.090Z,41.33
2018-04-22T08:31:40.326Z,40.77
2018-04-22T08:34:08.572Z,38.62
2018-04-22T08:36:36.855Z,38.94
2018-04-22T08:39:05.107Z,40.18
2018-04-22T08:41:33.345Z,37.76
2018-04-22T08:44:02.626Z,37.20
2018-04-22T08:46:30.829Z,37.11
2018-04-22T08:48:59.847Z,39.11
2018-04-22T08:51:28.414Z,38.60
2018-04-22T08:53:56.664Z,38.61
2018-04-22T08:56:24.900Z,38.58
2018-04-22T08:58:53.147Z,37.94
2018-04-22T09:01:21.389Z,36.13
2018-04-22T09:03:50.441Z,36.34
2018-04-22T09:06:18.686Z,37.68
2018-04-22T09:08:46.936Z,38.21
2018-04-22T09:11:15.938Z,37.16
2018-04-22T09:13:44.950Z,36.77
2018-04-22T09:16:13.184Z,37.29
2018-04-22T09:18:41.429Z,38.72
2018-04-22T09:21:09.670Z,37.28
2018-04-22T09:23:37.941Z,36.81
2018-04-22T09:26:06.952Z,38.42
2018-04-22T09:28:35.197Z,36.10
2018-04-22T09:31:04.197Z,37.59
2018-04-22T09:33:33.219Z,35.96
2018-04-22T09:36:01.454Z,36.14
2018-04-22T09:38:30.476Z,34.85
2018-04-22T09:40:58.710Z,36.97
2018-04-22T09:43:26.962Z,36.63
2018-04-22T09:45:55.262Z,36.56
2018-04-22T09:48:23.459Z,35.60
2018-04-22T09:50:52.471Z,35.10
2018-04-22T09:53:20.763Z,36.00
2018-04-22T09:55:49.309Z,36.51
2018-04-22T09:58:18.309Z,35.71
2018-04-22T10:00:47.358Z,33.73
2018-04-22T10:03:15.603Z,34.93
2018-04-22T10:05:49.734Z,34.71
2018-04-22T10:08:17.951Z,34.84
2018-04-22T10:10:46.957Z,34.91
2018-04-22T10:13:15.962Z,33.39
2018-04-22T10:15:44.538Z,33.74
2018-04-22T10:18:12.781Z,32.92
2018-04-22T10:20:41.026Z,32.13
2018-04-22T10:23:09.295Z,32.92
2018-04-22T10:25:37.642Z,32.43
2018-04-22T10:28:05.914Z,31.32
2018-04-22T10:30:34.185Z,31.06
2018-04-22T10:33:03.197Z,32.24
2018-04-22T10:35:31.440Z,30.63
2018-04-22T10:37:59.682Z,32.21
2018-04-22T10:40:27.949Z,31.20
2018-04-22T10:42:56.201Z,29.88
2018-04-22T10:45:24.462Z,30.21
2018-04-22T10:47:52.708Z,29.11
2018-04-22T10:50:20.938Z,31.28
2018-04-22T10:52:49.194Z,31.63
2018-04-22T10:55:17.443Z,28.93
2018-04-22T10:57:45.672Z,30.20
2018-04-22T11:00:13.926Z,27.38
2018-04-22T11:02:42.162Z,27.26
2018-04-22T11:05:10.502Z,28.49
2018-04-22T11:07:39.453Z,28.63
2018-04-22T11:10:08.476Z,25.36
2018-04-22T11:12:36.713Z,27.05
2018-04-22T11:15:05.730Z,26.61
2018-04-22T11:17:33.970Z,26.52
2018-04-22T11:20:02.224Z,24.69
2018-04-22T11:22:30.453Z,25.47
2018-04-22T11:24:58.697Z,25.37
2018-04-22T11:27:26.951Z,25.43
2018-04-22T11:29:55.174Z,24.29
2018-04-22T11:32:24.178Z,26.27
2018-04-22T11:34:52.443Z,24.64
2018-04-22T11:37:20.675Z,24.28
2018-04-22T11:39:48.915Z,23.78
2018-04-22T11:42:17.273Z,24.66
2018-04-22T11:44:45.510Z,24.90
2018-04-22T11:47:13.845Z,25.13
2018-04-22T11:49:42.066Z,25.00
2018-04-22T11:52:11.091Z,25.35
2018-04-22T11:54:40.095Z,25.85
2018-04-22T11:57:08.338Z,28.31
2018-04-22T11:59:37.355Z,26.52
2018-04-22T12:02:05.594Z,27.35
2018-04-22T12:04:33.829Z,26.99
2018-04-22T12:07:02.342Z,27.31
2018-04-22T12:09:30.581Z,28.77
2018-04-22T12:11:58.817Z,27.65
2018-04-22T12:14:27.833Z,26.03
2018-04-22T12:16:56.077Z,25.78
2018-04-22T12:19:25.086Z,27.23
2018-04-22T12:21:54.219Z,26.73
2018-04-22T12:24:22.467Z,29.10
2018-04-22T12:26:51.863Z,28.23
2018-04-22T12:29:20.866Z,26.83
2018-04-22T12:31:49.125Z,27.79
2018-04-22T12:34:17.342Z,27.55
2018-04-22T12:36:45.587Z,27.54
2018-04-22T12:39:13.823Z,27.69
2018-04-22T12:41:43.589Z,27.34
2018-04-22T12:44:11.859Z,27.83
2018-04-22T12:46:40.098Z,28.18
2018-04-22T12:49:08.362Z,27.40
2018-04-22T12:51:36.673Z,27.63
2018-04-22T12:54:05.685Z,29.02
2018-04-22T12:56:33.913Z,27.99
2018-04-22T12:59:02.162Z,28.76
2018-04-22T13:01:30.402Z,29.69
2018-04-22T13:03:58.644Z,28.54
2018-04-22T13:06:26.886Z,28.89
2018-04-22T13:08:55.121Z,26.90
2018-04-22T13:11:23.387Z,28.81
2018-04-22T13:13:52.689Z,30.02
2018-04-22T13:16:21.699Z,28.43
2018-04-22T13:18:49.930Z,27.32
2018-04-22T13:21:18.249Z,29.05
2018-04-22T13:23:47.262Z,26.77
2018-04-22T13:26:15.502Z,29.29
2018-04-22T13:28:44.734Z,30.15
2018-04-22T13:31:12.966Z,30.12
2018-04-22T13:33:43.283Z,30.58
2018-04-22T13:36:12.423Z,30.18
2018-04-22T13:38:40.649Z,29.56
2018-04-22T13:41:08.893Z,29.09
2018-04-22T13:43:37.149Z,29.47
2018-04-22T13:46:05.753Z,28.85
2018-04-22T13:48:34.230Z,30.69
2018-04-22T13:51:02.461Z,29.27
2018-04-22T13:53:31.510Z,27.85
2018-04-22T13:55:59.756Z,28.37
2018-04-22T13:58:27.998Z,30.42
2018-04-22T14:00:57.006Z,28.50
2018-04-22T14:03:25.587Z,28.28
2018-04-22T14:05:53.821Z,28.84
2018-04-22T14:08:22.822Z,26.40
2018-04-22T14:10:51.086Z,28.04
2018-04-22T14:13:19.321Z,27.75
2018-04-22T14:15:47.562Z,28.12
2018-04-22T14:18:15.807Z,29.43
2018-04-22T14:20:44.040Z,27.61
2018-04-22T14:23:12.276Z,24.31
2018-04-22T14:25:40.538Z,26.84
2018-04-22T14:28:08.770Z,26.09
2018-04-22T14:30:37.014Z,24.52
2018-04-22T14:33:06.025Z,23.83
2018-04-22T14:35:35.044Z,24.61
2018-04-22T14:38:03.293Z,26.33
2018-04-22T14:40:32.297Z,24.57
2018-04-22T14:43:00.765Z,27.29
2018-04-22T14:45:46.958Z,26.98
2018-04-22T14:48:15.970Z,27.16
2018-04-22T14:50:44.260Z,26.81
2018-04-22T14:53:12.471Z,25.73
2018-04-22T14:55:40.761Z,26.48
2018-04-22T14:58:09.002Z,26.66
2018-04-22T15:00:37.246Z,28.30
2018-04-22T15:03:05.474Z,28.15
2018-04-22T15:05:33.722Z,28.34
2018-04-22T15:08:01.989Z,27.62
2018-04-22T15:10:30.227Z,27.74
2018-04-22T15:12:59.251Z,27.77
2018-04-22T15:15:27.490Z,29.61
2018-04-22T15:17:56.503Z,28.61
2018-04-22T15:20:24.750Z,28.76
2018-04-22T15:22:53.084Z,28.79
2018-04-22T15:25:21.313Z,28.37
2018-04-22T15:27:50.334Z,30.58
2018-04-22T15:30:18.592Z,28.41
2018-04-22T15:32:47.622Z,28.55
2018-04-22T15:35:15.878Z,29.91
2018-04-22T15:37:44.153Z,28.09
2018-04-22T15:40:12.389Z,28.28
2018-04-22T15:42:40.705Z,28.03
2018-04-22T15:45:09.699Z,27.88
2018-04-22T15:47:37.995Z,28.54
2018-04-22T15:50:06.550Z,28.08
2018-04-22T15:52:34.792Z,29.24
2018-04-22T15:55:03.023Z,29.06
2018-04-22T15:57:31.291Z,28.49
2018-04-22T15:59:59.545Z,29.68
2018-04-22T16:02:28.542Z,29.83
2018-04-22T16:04:56.790Z,29.80
2018-04-22T16:07:25.022Z,29.12
2018-04-22T16:09:53.574Z,29.93
2018-04-22T16:12:22.580Z,30.76
2018-04-22T16:14:50.817Z,29.96
2018-04-22T16:17:19.437Z,30.58
2018-04-22T16:19:47.672Z,29.87
2018-04-22T16:22:15.982Z,29.60
2018-04-22T16:24:44.480Z,27.74
2018-04-22T16:27:12.730Z,27.41
2018-04-22T16:29:41.734Z,31.35
2018-04-22T16:32:09.985Z,29.13
2018-04-22T16:34:39.006Z,32.04
2018-04-22T16:37:07.235Z,30.77
2018-04-22T16:39:35.473Z,31.52
2018-04-22T16:42:03.721Z,32.94
2018-04-22T16:44:31.974Z,31.23
2018-04-22T16:47:00.213Z,31.93
2018-04-22T16:49:28.458Z,33.03
2018-04-22T16:51:56.694Z,33.06
2018-04-22T16:54:24.928Z,31.38
2018-04-22T16:56:53.194Z,33.30
2018-04-22T16:59:21.438Z,32.60
2018-04-22T17:01:50.447Z,31.01
2018-04-22T17:04:18.694Z,30.70
2018-04-22T17:06:47.710Z,30.82
2018-04-22T17:09:15.945Z,31.59
2018-04-22T17:11:44.201Z,31.00
2018-04-22T17:14:12.742Z,29.39
2018-04-22T17:16:41.738Z,29.95
2018-04-22T17:19:09.970Z,32.90
2018-04-22T17:21:38.217Z,31.71
2018-04-22T17:24:06.522Z,33.40
2018-04-22T17:26:35.568Z,33.43
2018-04-22T17:29:03.809Z,32.10
2018-04-22T17:31:32.846Z,33.61
2018-04-22T17:34:01.400Z,33.65
2018-04-22T17:36:30.402Z,32.75
2018-04-22T17:38:58.694Z,32.53
2018-04-22T17:41:26.976Z,33.31
2018-04-22T17:43:55.466Z,31.90
2018-04-22T17:46:23.732Z,32.84
2018-04-22T17:48:51.957Z,33.53
2018-04-22T17:51:20.222Z,33.76
2018-04-22T17:53:48.503Z,33.99
2018-04-22T17:56:16.753Z,34.34
2018-04-22T17:58:45.008Z,34.21
2018-04-22T18:01:13.572Z,35.24
2018-04-22T18:03:42.625Z,35.20
2018-04-22T18:06:10.882Z,35.90
2018-04-22T18:08:39.133Z,35.34
2018-04-22T18:11:07.370Z,36.23
2018-04-22T18:13:36.373Z,36.01
2018-04-22T18:16:05.394Z,36.92
2018-04-22T18:18:33.645Z,36.50
2018-04-22T18:21:02.657Z,36.86
2018-04-22T18:23:30.890Z,36.91
2018-04-22T18:25:59.926Z,37.89
2018-04-22T18:28:28.162Z,38.03
2018-04-22T18:30:56.406Z,38.24
2018-04-22T18:33:24.638Z,38.36
2018-04-22T18:35:52.890Z,37.79
2018-04-22T18:38:21.126Z,38.87
2018-04-22T18:40:49.374Z,37.82
2018-04-22T18:43:17.610Z,38.66
2018-04-22T18:45:46.652Z,39.73
2018-04-22T18:48:14.914Z,38.88
2018-04-22T18:50:43.213Z,38.75
2018-04-22T18:53:11.463Z,39.62
2018-04-22T18:55:39.709Z,39.65
2018-04-22T18:58:07.962Z,39.10
2018-04-22T19:00:36.207Z,40.78
2018-04-22T19:03:04.436Z,40.68
2018-04-22T19:05:32.694Z,40.36
2018-04-22T19:08:00.926Z,39.77
2018-04-22T19:10:29.167Z,40.46
2018-04-22T19:12:57.696Z,41.56
2018-04-22T19:15:25.938Z,42.44
2018-04-22T19:17:54.943Z,41.39
2018-04-22T19:20:23.198Z,41.51
2018-04-22T19:22:52.214Z,41.92
2018-04-22T19:25:20.458Z,42.03
2018-04-22T19:27:48.751Z,41.70
2018-04-22T19:30:17.742Z,42.32
2018-04-22T19:32:46.757Z,41.73
2018-04-22T19:35:15.010Z,41.66
2018-04-22T19:37:44.118Z,42.72
2018-04-22T19:40:13.177Z,42.73
2018-04-22T19:42:41.374Z,43.53
2018-04-22T19:45:10.507Z,42.46
2018-04-22T19:47:38.746Z,43.97
2018-04-22T19:50:07.757Z,42.73
2018-04-22T19:52:36.006Z,42.62
2018-04-22T19:55:05.006Z,43.94
2018-04-22T19:57:34.110Z,43.20
2018-04-22T20:00:03.126Z,43.48
2018-04-22T20:02:31.371Z,43.64
2018-04-22T20:05:00.677Z,43.47
2018-04-22T20:07:28.917Z,43.16
2018-04-22T20:09:57.162Z,42.41
2018-04-22T20:12:25.411Z,43.35
2018-04-22T20:14:53.797Z,43.75
2018-04-22T20:17:22.048Z,44.54
2018-04-22T20:19:51.062Z,44.86
2018-04-22T20:22:19.314Z,43.55
2018-04-22T20:24:48.325Z,43.86
2018-04-22T20:27:16.582Z,43.69
2018-04-22T20:29:45.594Z,43.97
2018-04-22T20:32:13.986Z,43.94
2018-04-22T20:34:42.238Z,44.36
2018-04-22T20:37:11.250Z,44.45
2018-04-22T20:39:39.507Z,43.34
2018-04-22T20:42:08.518Z,43.23
2018-04-22T20:44:36.754Z,44.19
2018-04-22T20:47:04.998Z,44.10
2018-04-22T20:49:33.271Z,43.92
2018-04-22T20:52:01.518Z,43.08
2018-04-22T20:54:29.749Z,44.04
2018-04-22T20:56:59.118Z,43.54
2018-04-22T20:59:27.366Z,43.18
2018-04-22T21:01:55.622Z,42.26
2018-04-22T21:04:24.215Z,42.34
2018-04-22T21:06:53.222Z,41.50
2018-04-22T21:09:21.457Z,41.26
2018-04-22T21:11:49.709Z,41.02
2018-04-22T21:14:17.973Z,41.15
2018-04-22T21:16:46.233Z,41.42
2018-04-22T21:19:14.483Z,40.85
2018-04-22T21:21:43.481Z,40.82
2018-04-22T21:24:12.501Z,40.65
2018-04-22T21:26:40.960Z,40.74
2018-04-22T21:29:09.193Z,40.51
2018-04-22T21:31:37.422Z,40.26
2018-04-22T21:34:05.693Z,39.73
2018-04-22T21:36:33.943Z,40.14
2018-04-22T21:39:02.947Z,40.08
2018-04-22T21:41:31.958Z,39.80
2018-04-22T21:44:00.246Z,40.14
2018-04-22T21:46:28.466Z,40.30
2018-04-22T21:48:56.718Z,40.09
2018-04-22T21:51:25.049Z,40.01
2018-04-22T21:53:53.349Z,40.58
2018-04-22T21:56:21.598Z,40.59
2018-04-22T21:58:50.670Z,40.56
2018-04-22T22:01:18.912Z,40.93
2018-04-22T22:03:47.157Z,40.44
2018-04-22T22:06:15.403Z,40.54
2018-04-22T22:08:44.399Z,40.77
2018-04-22T22:11:13.409Z,41.17
2018-04-22T22:13:41.644Z,40.96
2018-04-22T22:16:09.960Z,40.83
2018-04-22T22:18:38.978Z,41.03
2018-04-22T22:21:07.221Z,41.18
2018-04-22T22:23:36.224Z,41.39
2018-04-22T22:26:04.467Z,41.47
2018-04-22T22:28:33.003Z,41.74
2018-04-22T22:31:01.226Z,42.24
2018-04-22T22:33:29.454Z,41.91
2018-04-22T22:35:57.806Z,42.12
2018-04-22T22:38:26.809Z,42.35
2018-04-22T22:40:55.061Z,42.39
2018-04-22T22:43:24.071Z,42.56
2018-04-22T22:45:52.326Z,42.62
2018-04-22T22:48:21.340Z,42.53
2018-04-22T22:50:49.582Z,42.41
2018-04-22T22:53:17.825Z,42.66
2018-04-22T22:55:46.071Z,42.58
2018-04-22T22:58:15.058Z,42.82
2018-04-22T23:00:44.546Z,42.74
2018-04-22T23:03:13.543Z,42.87
2018-04-22T23:05:42.546Z,42.60
2018-04-22T23:08:11.556Z,43.19
2018-04-22T23:10:39.814Z,43.26
2018-04-22T23:13:08.829Z,42.82
2018-04-22T23:15:37.113Z,42.75
2018-04-22T23:18:05.349Z,42.94
2018-04-22T23:20:34.354Z,42.76
2018-04-22T23:23:02.704Z,43.02
2018-04-22T23:25:30.924Z,43.16
2018-04-22T23:27:59.170Z,43.07
2018-04-22T23:30:27.401Z,43.26
2018-04-22T23:32:55.642Z,43.06
2018-04-22T23:35:23.893Z,43.36
2018-04-22T23:37:52.897Z,43.05
2018-04-22T23:40:21.158Z,42.99
2018-04-22T23:42:50.217Z,43.18
2018-04-22T23:45:18.398Z,43.39
2018-04-22T23:47:46.635Z,43.16
2018-04-22T23:50:14.908Z,43.02
2018-04-22T23:52:43.150Z,43.09
2018-04-22T23:55:12.171Z,43.30
2018-04-22T23:57:40.406Z,43.01
